createdAt,value
2023-03-10T00:01:59.602Z,80.20
2023-03-10T00:05:04.732Z,80.40
2023-03-10T00:08:08.237Z,79.60
2023-03-10T00:11:11.715Z,79.60
2023-03-10T00:14:14.954Z,80.10
2023-03-10T00:17:17.810Z,79.10
2023-03-10T00:20:22.213Z,79.10
2023-03-10T00:23:25.025Z,78.90
2023-03-10T00:26:29.582Z,79.30
2023-03-10T00:29:32.449Z,79.00
2023-03-10T00:32:36.749Z,78.20
2023-03-10T00:35:41.114Z,78.40
2023-03-10T00:38:45.742Z,78.60
2023-03-10T00:41:50.161Z,78.70
2023-03-10T00:44:53.209Z,78.30
2023-03-10T00:47:56.015Z,78.00
2023-03-10T00:51:00.361Z,78.40
2023-03-10T00:54:04.081Z,78.30
2023-03-10T00:57:07.098Z,77.90
2023-03-10T01:00:11.457Z,77.70
2023-03-10T01:03:14.281Z,77.60
2023-03-10T01:06:18.459Z,77.80
2023-03-10T01:09:21.455Z,77.60
2023-03-10T01:12:24.351Z,77.80
2023-03-10T01:15:27.191Z,77.30
2023-03-10T01:18:30.006Z,77.60
2023-03-10T01:21:36.419Z,78.80
2023-03-10T01:24:39.233Z,77.50
2023-03-10T01:27:43.116Z,78.70
2023-03-10T01:30:46.258Z,78.80
2023-03-10T01:33:49.330Z,78.40
2023-03-10T01:36:53.501Z,78.60
2023-03-10T01:39:56.406Z,78.60
2023-03-10T01:43:27.413Z,78.60
2023-03-10T01:46:48.585Z,78.50
2023-03-10T01:49:51.497Z,79.40
2023-03-10T01:52:58.545Z,78.40
2023-03-10T01:56:04.959Z,77.60
2023-03-10T01:59:08.471Z,78.20
2023-03-10T02:02:12.154Z,80.10
2023-03-10T02:05:15.809Z,78.70
2023-03-10T02:08:21.100Z,78.80
2023-03-10T02:11:24.720Z,79.60
2023-03-10T02:14:27.874Z,79.60
2023-03-10T02:17:30.964Z,80.40
2023-03-10T02:20:41.062Z,80.30
2023-03-10T02:24:00.936Z,79.90
2023-03-10T02:27:12.339Z,80.10
2023-03-10T02:30:19.609Z,79.60
2023-03-10T02:33:27.127Z,79.70
2023-03-10T02:36:30.113Z,80.30
2023-03-10T02:39:32.933Z,80.70
2023-03-10T02:42:37.822Z,79.90
2023-03-10T02:45:43.522Z,81.00
2023-03-10T02:48:46.348Z,80.70
2023-03-10T02:51:49.195Z,80.80
2023-03-10T02:54:52.014Z,79.20
2023-03-10T02:57:56.308Z,78.90
2023-03-10T03:00:59.365Z,78.70
2023-03-10T03:04:02.691Z,78.60
2023-03-10T03:07:05.729Z,78.20
2023-03-10T03:10:09.287Z,78.00
2023-03-10T03:13:13.727Z,78.20
2023-03-10T03:16:16.751Z,78.30
2023-03-10T03:19:19.594Z,78.80
2023-03-10T03:22:22.580Z,79.10
2023-03-10T03:25:27.673Z,78.40
2023-03-10T03:28:32.206Z,78.60
2023-03-10T03:31:35.074Z,80.10
2023-03-10T03:34:37.898Z,78.60
2023-03-10T03:37:40.714Z,78.90
2023-03-10T03:40:45.115Z,78.70
2023-03-10T03:43:49.286Z,77.80
2023-03-10T03:46:52.093Z,80.40
2023-03-10T03:49:54.900Z,79.10
2023-03-10T03:52:58.196Z,79.60
2023-03-10T03:56:01.024Z,80.70
2023-03-10T03:59:05.230Z,81.10
2023-03-10T04:02:08.109Z,80.60
2023-03-10T04:05:11.286Z,80.90
2023-03-10T04:08:14.448Z,80.90
2023-03-10T04:11:17.378Z,80.60
2023-03-10T04:14:21.590Z,81.10
2023-03-10T04:17:24.424Z,80.90
2023-03-10T04:20:27.497Z,80.20
2023-03-10T04:23:30.318Z,80.20
2023-03-10T04:26:33.432Z,79.50
2023-03-10T04:29:38.079Z,80.00
2023-03-10T04:32:40.992Z,80.30
2023-03-10T04:35:47.482Z,80.30
2023-03-10T04:38:50.454Z,80.60
2023-03-10T04:41:53.317Z,80.40
2023-03-10T04:44:57.667Z,80.10
2023-03-10T04:48:00.521Z,80.10
2023-03-10T04:51:05.484Z,81.40
2023-03-10T04:54:08.709Z,80.60
2023-03-10T04:57:11.549Z,80.50
2023-03-10T05:00:16.389Z,80.60
2023-03-10T05:03:19.259Z,80.50
2023-03-10T05:06:23.158Z,80.60
2023-03-10T05:09:26.044Z,80.70
2023-03-10T05:12:28.965Z,81.00
2023-03-10T05:15:35.358Z,81.10
2023-03-10T05:18:38.191Z,81.50
2023-03-10T05:21:40.993Z,82.10
2023-03-10T05:24:43.884Z,83.10
2023-03-10T05:27:46.813Z,83.70
2023-03-10T05:30:51.016Z,84.30
2023-03-10T05:33:54.360Z,85.20
2023-03-10T05:36:57.246Z,85.60
2023-03-10T05:40:00.244Z,86.20
2023-03-10T05:43:03.363Z,88.20
2023-03-10T05:46:08.277Z,88.90
2023-03-10T05:49:11.117Z,90.20
2023-03-10T05:52:13.946Z,90.30
2023-03-10T05:55:19.310Z,90.50
2023-03-10T05:58:22.168Z,90.90
2023-03-10T06:01:26.327Z,91.30
2023-03-10T06:04:32.249Z,91.10
2023-03-10T06:07:36.080Z,91.00
2023-03-10T06:10:38.938Z,91.40
2023-03-10T06:13:41.824Z,91.20
2023-03-10T06:16:51.291Z,91.30
2023-03-10T06:19:54.327Z,91.60
2023-03-10T06:22:57.157Z,91.70
2023-03-10T06:26:01.835Z,91.70
2023-03-10T06:29:05.322Z,91.60
2023-03-10T06:32:09.653Z,91.20
2023-03-10T06:35:15.154Z,91.10
2023-03-10T06:38:18.132Z,91.00
2023-03-10T06:41:21.604Z,91.10
2023-03-10T06:44:24.446Z,91.10
2023-03-10T06:47:28.624Z,91.10
2023-03-10T06:50:31.787Z,91.00
2023-03-10T06:53:34.690Z,90.80
2023-03-10T06:56:37.515Z,91.30
2023-03-10T06:59:40.348Z,91.10
2023-03-10T07:02:44.711Z,91.10
2023-03-10T07:05:47.635Z,91.20
2023-03-10T07:08:51.174Z,91.00
2023-03-10T07:11:54.101Z,91.00
2023-03-10T07:14:56.946Z,91.10
2023-03-10T07:18:01.125Z,90.90
2023-03-10T07:21:08.466Z,90.80
2023-03-10T07:24:11.302Z,90.70
2023-03-10T07:27:14.402Z,90.70
2023-03-10T07:30:17.641Z,90.70
2023-03-10T07:33:21.948Z,90.90
2023-03-10T07:36:24.825Z,90.80
2023-03-10T07:39:28.662Z,90.70
2023-03-10T07:42:31.823Z,90.60
2023-03-10T07:45:35.633Z,90.60
2023-03-10T07:48:40.442Z,90.30
2023-03-10T07:51:43.454Z,90.20
2023-03-10T07:54:46.949Z,90.20
2023-03-10T07:57:50.033Z,90.20
2023-03-10T08:00:57.053Z,90.20
2023-03-10T08:04:01.567Z,89.80
2023-03-10T08:07:04.479Z,90.00
2023-03-10T08:10:08.916Z,89.80
2023-03-10T08:13:12.136Z,89.60
2023-03-10T08:16:15.993Z,89.70
2023-03-10T08:19:20.269Z,89.40
2023-03-10T08:22:23.087Z,88.90
2023-03-10T08:25:26.079Z,88.50
2023-03-10T08:28:30.741Z,88.30
2023-03-10T08:31:33.968Z,87.90
2023-03-10T08:34:38.856Z,88.30
2023-03-10T08:37:43.240Z,88.10
2023-03-10T08:40:46.438Z,86.70
2023-03-10T08:43:50.616Z,86.90
2023-03-10T08:46:54.027Z,86.70
2023-03-10T08:49:58.429Z,87.20
2023-03-10T08:53:04.209Z,86.60
2023-03-10T08:56:07.982Z,86.20
2023-03-10T08:59:11.433Z,85.70
2023-03-10T09:02:15.200Z,84.30
2023-03-10T09:05:21.733Z,84.50
2023-03-10T09:08:27.305Z,83.90
2023-03-10T09:11:32.853Z,83.60
2023-03-10T09:14:35.951Z,83.40
2023-03-10T09:17:40.778Z,83.30
2023-03-10T09:20:46.023Z,81.30
2023-03-10T09:23:52.773Z,80.90
2023-03-10T09:26:57.562Z,80.60
2023-03-10T09:30:01.500Z,81.50
2023-03-10T09:33:05.125Z,80.40
2023-03-10T09:36:11.158Z,78.40
2023-03-10T09:39:14.001Z,78.00
2023-03-10T09:42:38.351Z,79.30
2023-03-10T09:45:46.987Z,79.20
2023-03-10T09:48:56.829Z,79.00
2023-03-10T09:52:01.337Z,80.20
2023-03-10T09:55:14.915Z,77.30
2023-03-10T09:58:33.489Z,77.40
2023-03-10T10:01:37.421Z,78.90
2023-03-10T10:04:42.877Z,81.70
2023-03-10T10:07:49.595Z,85.90
2023-03-10T10:10:55.757Z,89.50
2023-03-10T10:14:22.380Z,90.70
2023-03-10T10:17:55.121Z,91.40
2023-03-10T10:21:09.414Z,91.00
2023-03-10T10:24:14.358Z,90.20
2023-03-10T10:27:19.971Z,89.70
2023-03-10T10:30:33.417Z,89.80
2023-03-10T10:33:54.024Z,90.50
2023-03-10T10:36:57.729Z,90.80
2023-03-10T10:40:01.512Z,91.40
2023-03-10T10:43:07.648Z,93.10
2023-03-10T10:46:13.956Z,93.80
2023-03-10T10:49:22.977Z,94.40
2023-03-10T10:52:27.090Z,93.90
2023-03-10T10:55:34.369Z,93.40
2023-03-10T10:58:38.976Z,92.90
2023-03-10T11:01:51.867Z,92.30
2023-03-10T11:04:54.740Z,92.40
2023-03-10T11:07:58.090Z,91.90
2023-03-10T11:11:07.332Z,91.60
2023-03-10T11:14:33.951Z,91.70
2023-03-10T11:17:45.193Z,91.80
2023-03-10T11:20:56.226Z,91.20
2023-03-10T11:24:04.949Z,91.20
2023-03-10T11:27:15.525Z,90.90
2023-03-10T11:30:21.196Z,90.70
2023-03-10T11:33:33.180Z,90.90
2023-03-10T11:36:55.484Z,90.50
2023-03-10T11:40:15.817Z,89.40
2023-03-10T11:43:29.502Z,87.60
2023-03-10T11:46:37.350Z,85.20
2023-03-10T11:49:43.893Z,85.80
2023-03-10T11:52:47.664Z,83.00
2023-03-10T11:55:52.563Z,81.40
2023-03-10T11:58:59.078Z,78.30
2023-03-10T12:02:11.626Z,77.10
2023-03-10T12:05:21.513Z,78.10
2023-03-10T12:08:29.367Z,76.40
2023-03-10T12:11:32.332Z,76.30
2023-03-10T12:14:36.197Z,76.90
2023-03-10T12:17:40.079Z,74.20
2023-03-10T12:20:44.595Z,74.20
2023-03-10T12:23:48.897Z,74.30
2023-03-10T12:27:03.306Z,72.30
2023-03-10T12:30:38.888Z,73.40
2023-03-10T12:33:47.304Z,73.90
2023-03-10T12:36:53.781Z,74.10
2023-03-10T12:39:56.601Z,74.20
2023-03-10T12:42:59.422Z,74.70
2023-03-10T12:46:04.079Z,75.20
2023-03-10T12:49:18.189Z,73.90
2023-03-10T12:52:30.310Z,73.20
2023-03-10T12:55:34.133Z,74.60
2023-03-10T12:58:38.364Z,75.20
2023-03-10T13:01:55.459Z,75.30
2023-03-10T13:05:03.725Z,75.50
2023-03-10T13:08:18.642Z,74.70
2023-03-10T13:11:27.927Z,75.60
2023-03-10T13:14:37.818Z,74.40
2023-03-10T13:17:40.621Z,75.90
2023-03-10T13:20:43.536Z,75.70
2023-03-10T13:23:47.725Z,77.10
2023-03-10T13:27:02.681Z,77.50
2023-03-10T13:30:15.620Z,78.20
2023-03-10T13:33:24.698Z,77.50
2023-03-10T13:36:33.731Z,79.00
2023-03-10T13:39:38.741Z,79.30
2023-03-10T13:42:44.693Z,79.50
2023-03-10T13:45:54.404Z,80.20
2023-03-10T13:49:03.695Z,80.40
2023-03-10T13:52:13.268Z,80.80
2023-03-10T13:55:18.493Z,80.50
2023-03-10T13:58:21.386Z,80.90
2023-03-10T14:01:26.699Z,81.00
2023-03-10T14:04:44.688Z,80.90
2023-03-10T14:08:00.589Z,81.80
2023-03-10T14:11:32.936Z,82.50
2023-03-10T14:14:38.542Z,82.60
2023-03-10T14:17:42.003Z,82.80
2023-03-10T14:20:46.608Z,83.50
2023-03-10T14:23:49.459Z,84.50
2023-03-10T14:26:53.690Z,83.50
2023-03-10T14:29:58.545Z,83.40
2023-03-10T14:33:02.610Z,84.40
2023-03-10T14:36:10.752Z,84.10
2023-03-10T14:39:13.641Z,82.70
2023-03-10T14:42:22.008Z,82.60
2023-03-10T14:45:28.803Z,82.90
2023-03-10T14:48:36.505Z,83.00
2023-03-10T14:51:39.306Z,82.30
2023-03-10T14:54:42.218Z,84.40
2023-03-10T14:57:48.548Z,84.40
2023-03-10T15:00:51.835Z,85.10
2023-03-10T15:03:54.645Z,86.80
2023-03-10T15:06:57.454Z,88.30
2023-03-10T15:10:11.208Z,90.10
2023-03-10T15:13:18.177Z,90.60
2023-03-10T15:16:21.093Z,91.60
2023-03-10T15:19:26.085Z,92.10
2023-03-10T15:22:28.915Z,92.30
2023-03-10T15:25:31.813Z,92.30
2023-03-10T15:28:37.224Z,92.30
2023-03-10T15:31:40.214Z,92.40
2023-03-10T15:34:43.163Z,92.60
2023-03-10T15:37:46.297Z,93.70
2023-03-10T15:40:49.115Z,94.00
2023-03-10T15:43:53.308Z,94.20
2023-03-10T15:46:56.243Z,95.10
2023-03-10T15:49:59.365Z,95.80
2023-03-10T15:53:02.347Z,96.50
2023-03-10T15:56:08.787Z,97.30
2023-03-10T15:59:13.070Z,97.50
2023-03-10T16:02:16.232Z,98.20
2023-03-10T16:05:20.287Z,98.70
2023-03-10T16:08:23.111Z,98.40
2023-03-10T16:11:26.132Z,98.90
2023-03-10T16:14:30.978Z,97.90
2023-03-10T16:17:33.836Z,98.10
2023-03-10T16:20:36.696Z,98.10
2023-03-10T16:23:39.615Z,97.90
2023-03-10T16:26:44.662Z,97.80
2023-03-10T16:29:48.963Z,97.80
2023-03-10T16:32:52.155Z,97.10
2023-03-10T16:35:55.206Z,96.70
2023-03-10T16:38:58.648Z,96.70
2023-03-10T16:42:01.678Z,96.40
2023-03-10T16:45:07.657Z,96.50
2023-03-10T16:48:10.489Z,96.30
2023-03-10T16:51:23.507Z,96.60
2023-03-10T16:54:26.497Z,96.10
2023-03-10T16:57:29.343Z,96.30
2023-03-10T17:00:33.809Z,95.40
2023-03-10T17:03:39.868Z,95.10
2023-03-10T17:06:43.001Z,95.00
2023-03-10T17:09:45.846Z,94.90
2023-03-10T17:12:48.755Z,94.90
2023-03-10T17:15:52.937Z,94.40
2023-03-10T17:18:56.689Z,94.40
2023-03-10T17:22:00.162Z,93.90
2023-03-10T17:25:03.033Z,93.60
2023-03-10T17:28:08.336Z,93.50
2023-03-10T17:31:14.676Z,93.20
2023-03-10T17:34:17.684Z,93.20
2023-03-10T17:37:20.523Z,93.00
2023-03-10T17:40:23.997Z,92.90
2023-03-10T17:43:34.070Z,92.50
2023-03-10T17:46:40.740Z,92.50
2023-03-10T17:49:43.609Z,92.40
2023-03-10T17:52:48.905Z,92.10
2023-03-10T17:55:51.988Z,91.90
2023-03-10T17:58:55.524Z,91.60
2023-03-10T18:02:00.543Z,91.70
2023-03-10T18:05:04.099Z,91.90
2023-03-10T18:08:06.955Z,91.90
2023-03-10T18:11:10.575Z,92.40
2023-03-10T18:14:13.490Z,92.30
2023-03-10T18:17:17.652Z,92.00
2023-03-10T18:20:20.515Z,91.70
2023-03-10T18:23:23.378Z,92.00
2023-03-10T18:26:27.700Z,91.90
2023-03-10T18:29:30.562Z,91.70
2023-03-10T18:32:35.334Z,91.70
2023-03-10T18:35:39.648Z,91.80
2023-03-10T18:38:42.570Z,91.80
2023-03-10T18:41:45.402Z,91.50
2023-03-10T18:44:48.388Z,91.70
2023-03-10T18:47:52.542Z,92.00
2023-03-10T18:50:56.398Z,92.00
2023-03-10T18:53:59.369Z,96.60
2023-03-10T18:57:02.361Z,99.10
2023-03-10T19:00:07.580Z,99.90
2023-03-10T19:03:13.373Z,99.90
2023-03-10T19:06:16.358Z,99.90
2023-03-10T19:09:20.335Z,99.70
2023-03-10T19:12:24.862Z,99.60
2023-03-10T19:15:27.713Z,99.20
2023-03-10T19:18:31.866Z,99.40
2023-03-10T19:21:37.083Z,99.40
2023-03-10T19:24:39.978Z,99.70
2023-03-10T19:27:42.803Z,99.70
2023-03-10T19:30:45.648Z,99.30
2023-03-10T19:33:50.095Z,99.10
2023-03-10T19:36:52.965Z,98.60
2023-03-10T19:39:55.785Z,98.70
2023-03-10T19:42:59.158Z,98.00
2023-03-10T19:46:02.566Z,98.50
2023-03-10T19:49:08.090Z,97.30
2023-03-10T19:52:11.026Z,96.80
2023-03-10T19:55:17.792Z,97.30
2023-03-10T19:58:20.719Z,97.70
2023-03-10T20:01:26.060Z,96.90
2023-03-10T20:04:34.424Z,96.40
2023-03-10T20:07:38.719Z,96.40
2023-03-10T20:10:41.582Z,95.40
2023-03-10T20:13:44.449Z,95.10
2023-03-10T20:16:47.326Z,95.40
2023-03-10T20:19:51.551Z,95.40
2023-03-10T20:22:54.444Z,95.10
2023-03-10T20:26:01.989Z,95.20
2023-03-10T20:29:04.904Z,94.50
2023-03-10T20:32:07.865Z,94.80
2023-03-10T20:35:13.321Z,95.10
2023-03-10T20:38:16.159Z,95.00
2023-03-10T20:41:20.644Z,94.80
2023-03-10T20:44:23.477Z,94.90
2023-03-10T20:47:26.465Z,94.70
2023-03-10T20:50:30.783Z,94.50
2023-03-10T20:53:37.132Z,94.50
2023-03-10T20:56:39.984Z,95.00
2023-03-10T20:59:42.801Z,94.60
2023-03-10T21:02:46.236Z,94.70
2023-03-10T21:05:50.475Z,95.80
2023-03-10T21:08:53.340Z,96.80
2023-03-10T21:11:56.186Z,96.40
2023-03-10T21:14:59.267Z,96.90
2023-03-10T21:18:02.138Z,97.80
2023-03-10T21:21:09.368Z,98.10
2023-03-10T21:24:12.377Z,98.50
2023-03-10T21:27:15.198Z,99.70
2023-03-10T21:30:18.663Z,99.50
2023-03-10T21:33:23.025Z,99.50
2023-03-10T21:36:27.798Z,99.00
2023-03-10T21:39:30.682Z,98.70
2023-03-10T21:42:33.592Z,98.40
2023-03-10T21:45:37.408Z,98.10
2023-03-10T21:48:40.317Z,97.90
2023-03-10T21:51:44.709Z,97.90
2023-03-10T21:54:47.663Z,98.30
2023-03-10T21:57:50.696Z,98.00
2023-03-10T22:00:56.051Z,97.20
2023-03-10T22:03:59.124Z,96.80
2023-03-10T22:07:04.038Z,96.20
2023-03-10T22:10:07.664Z,96.20
2023-03-10T22:13:10.522Z,95.80
2023-03-10T22:16:16.934Z,95.20
2023-03-10T22:19:20.007Z,95.30
2023-03-10T22:22:24.715Z,94.80
2023-03-10T22:25:28.015Z,94.80
2023-03-10T22:28:30.938Z,94.70
2023-03-10T22:31:33.915Z,94.50
2023-03-10T22:34:36.756Z,95.10
2023-03-10T22:37:42.110Z,96.60
2023-03-10T22:40:44.913Z,97.20
2023-03-10T22:43:47.957Z,97.80
2023-03-10T22:46:50.798Z,97.60
2023-03-10T22:49:53.641Z,97.20
2023-03-10T22:52:57.832Z,96.70
2023-03-10T22:56:00.668Z,95.30
2023-03-10T22:59:06.002Z,93.80
2023-03-10T23:02:10.643Z,93.60
2023-03-10T23:05:13.743Z,93.20
2023-03-10T23:08:18.019Z,92.80
2023-03-10T23:11:22.168Z,92.00
2023-03-10T23:14:24.998Z,91.50
2023-03-10T23:17:27.852Z,91.90
2023-03-10T23:20:33.283Z,91.50
2023-03-10T23:23:39.210Z,91.30
2023-03-10T23:26:42.045Z,91.50
2023-03-10T23:29:44.870Z,91.30
2023-03-10T23:32:50.029Z,91.40
2023-03-10T23:35:54.308Z,91.80
2023-03-10T23:38:58.788Z,91.50
2023-03-10T23:42:01.675Z,91.50
2023-03-10T23:45:05.445Z,90.80
2023-03-10T23:48:11.984Z,91.10
2023-03-10T23:51:16.174Z,90.90
2023-03-10T23:54:22.439Z,90.80
2023-03-10T23:57:25.457Z,90.50
